sensor_id;sensor_type;location;lat;lon;timestamp;pressure;altitude;pressure_sealevel;temperature;humidity
50310;BME280;36207;51.850;21.698;2022-08-24T00:02:24;99947.96;;;21.40;68.09
50310;BME280;36207;51.850;21.698;2022-08-24T00:04:52;99948.55;;;21.39;68.12
50310;BME280;36207;51.850;21.698;2022-08-24T00:07:20;99949.05;;;21.40;68.34
50310;BME280;36207;51.850;21.698;2022-08-24T00:09:48;99946.96;;;21.43;68.25
50310;BME280;36207;51.850;21.698;2022-08-24T00:12:16;99947.77;;;21.46;68.43
50310;BME280;36207;51.850;21.698;2022-08-24T00:14:43;99947.38;;;21.46;68.54
50310;BME280;36207;51.850;21.698;2022-08-24T00:17:11;99945.21;;;21.46;68.49
50310;BME280;36207;51.850;21.698;2022-08-24T00:19:38;99943.98;;;21.47;68.53
50310;BME280;36207;51.850;21.698;2022-08-24T00:22:05;99944.90;;;21.48;68.51
50310;BME280;36207;51.850;21.698;2022-08-24T00:24:31;99949.41;;;21.47;68.54
50310;BME280;36207;51.850;21.698;2022-08-24T00:26:59;99951.59;;;21.43;68.42
50310;BME280;36207;51.850;21.698;2022-08-24T00:29:25;99952.67;;;21.39;68.41
50310;BME280;36207;51.850;21.698;2022-08-24T00:31:52;99954.14;;;21.39;68.54
50310;BME280;36207;51.850;21.698;2022-08-24T00:34:18;99954.70;;;21.39;68.67
50310;BME280;36207;51.850;21.698;2022-08-24T00:36:45;99955.02;;;21.36;68.73
50310;BME280;36207;51.850;21.698;2022-08-24T00:39:12;99953.70;;;21.31;68.73
50310;BME280;36207;51.850;21.698;2022-08-24T00:41:44;99952.56;;;21.28;68.78
50310;BME280;36207;51.850;21.698;2022-08-24T00:44:11;99953.85;;;21.27;68.89
50310;BME280;36207;51.850;21.698;2022-08-24T00:49:59;99956.69;;;21.33;68.94
50310;BME280;36207;51.850;21.698;2022-08-24T00:52:34;99961.01;;;21.34;69.08
50310;BME280;36207;51.850;21.698;2022-08-24T00:55:08;99965.95;;;21.34;68.86
50310;BME280;36207;51.850;21.698;2022-08-24T00:57:39;99970.29;;;21.34;68.91
50310;BME280;36207;51.850;21.698;2022-08-24T01:00:16;99976.36;;;21.32;69.31
50310;BME280;36207;51.850;21.698;2022-08-24T01:02:46;99983.36;;;21.32;69.38
50310;BME280;36207;51.850;21.698;2022-08-24T01:05:14;99988.25;;;21.32;69.38
50310;BME280;36207;51.850;21.698;2022-08-24T01:07:45;99987.60;;;21.32;69.38
50310;BME280;36207;51.850;21.698;2022-08-24T01:10:17;99988.58;;;21.33;69.42
50310;BME280;36207;51.850;21.698;2022-08-24T01:12:47;99995.64;;;21.36;69.71
50310;BME280;36207;51.850;21.698;2022-08-24T01:15:15;99998.35;;;21.42;69.61
50310;BME280;36207;51.850;21.698;2022-08-24T01:17:43;99998.24;;;21.47;69.55
50310;BME280;36207;51.850;21.698;2022-08-24T01:20:28;100000.93;;;21.48;69.53
50310;BME280;36207;51.850;21.698;2022-08-24T01:23:22;99999.13;;;21.51;69.60
50310;BME280;36207;51.850;21.698;2022-08-24T01:25:48;99999.07;;;21.51;69.73
50310;BME280;36207;51.850;21.698;2022-08-24T01:28:17;99998.30;;;21.50;70.01
50310;BME280;36207;51.850;21.698;2022-08-24T01:30:44;100000.23;;;21.52;69.85
50310;BME280;36207;51.850;21.698;2022-08-24T01:33:24;100000.27;;;21.51;69.66
50310;BME280;36207;51.850;21.698;2022-08-24T01:36:02;100000.23;;;21.52;69.83
50310;BME280;36207;51.850;21.698;2022-08-24T01:38:32;100000.33;;;21.55;70.14
50310;BME280;36207;51.850;21.698;2022-08-24T01:41:01;100001.55;;;21.58;70.04
50310;BME280;36207;51.850;21.698;2022-08-24T01:43:29;100004.80;;;21.57;69.91
50310;BME280;36207;51.850;21.698;2022-08-24T01:45:55;100007.87;;;21.55;70.09
50310;BME280;36207;51.850;21.698;2022-08-24T01:48:22;100012.19;;;21.58;69.97
50310;BME280;36207;51.850;21.698;2022-08-24T01:50:48;100012.50;;;21.59;70.27
50310;BME280;36207;51.850;21.698;2022-08-24T01:53:15;100013.61;;;21.61;70.30
50310;BME280;36207;51.850;21.698;2022-08-24T01:55:41;100015.30;;;21.63;70.23
50310;BME280;36207;51.850;21.698;2022-08-24T01:58:08;100013.61;;;21.61;70.20
50310;BME280;36207;51.850;21.698;2022-08-24T02:00:35;100011.88;;;21.58;70.13
50310;BME280;36207;51.850;21.698;2022-08-24T02:03:03;100008.45;;;21.58;70.21
50310;BME280;36207;51.850;21.698;2022-08-24T02:05:30;100008.89;;;21.58;70.32
50310;BME280;36207;51.850;21.698;2022-08-24T02:07:56;100010.61;;;21.57;70.32
50310;BME280;36207;51.850;21.698;2022-08-24T02:10:24;100013.52;;;21.55;70.23
50310;BME280;36207;51.850;21.698;2022-08-24T02:12:51;100014.09;;;21.53;70.32
50310;BME280;36207;51.850;21.698;2022-08-24T02:15:30;100011.48;;;21.51;70.23
50310;BME280;36207;51.850;21.698;2022-08-24T02:17:58;100009.80;;;21.49;70.22
50310;BME280;36207;51.850;21.698;2022-08-24T02:20:25;100007.85;;;21.46;70.46
50310;BME280;36207;51.850;21.698;2022-08-24T02:22:53;100004.57;;;21.40;70.22
50310;BME280;36207;51.850;21.698;2022-08-24T02:25:20;100004.71;;;21.36;70.35
50310;BME280;36207;51.850;21.698;2022-08-24T02:27:47;100002.36;;;21.36;70.51
50310;BME280;36207;51.850;21.698;2022-08-24T02:30:13;100000.80;;;21.35;70.52
50310;BME280;36207;51.850;21.698;2022-08-24T02:32:40;100001.89;;;21.32;70.56
50310;BME280;36207;51.850;21.698;2022-08-24T02:35:08;100005.30;;;21.29;70.58
50310;BME280;36207;51.850;21.698;2022-08-24T02:37:35;100006.91;;;21.27;70.68
50310;BME280;36207;51.850;21.698;2022-08-24T02:40:03;100008.44;;;21.28;70.66
50310;BME280;36207;51.850;21.698;2022-08-24T02:42:31;100005.85;;;21.29;70.83
50310;BME280;36207;51.850;21.698;2022-08-24T02:44:59;100002.70;;;21.28;70.82
50310;BME280;36207;51.850;21.698;2022-08-24T02:47:27;100005.73;;;21.29;70.74
50310;BME280;36207;51.850;21.698;2022-08-24T02:49:53;100002.02;;;21.27;70.80
50310;BME280;36207;51.850;21.698;2022-08-24T02:52:19;100003.83;;;21.27;70.80
50310;BME280;36207;51.850;21.698;2022-08-24T02:54:47;100008.45;;;21.28;70.87
50310;BME280;36207;51.850;21.698;2022-08-24T02:57:13;100010.13;;;21.28;70.80
50310;BME280;36207;51.850;21.698;2022-08-24T02:59:40;100010.98;;;21.27;70.90
50310;BME280;36207;51.850;21.698;2022-08-24T03:02:06;100007.79;;;21.27;70.85
50310;BME280;36207;51.850;21.698;2022-08-24T03:04:33;100006.10;;;21.27;70.86
50310;BME280;36207;51.850;21.698;2022-08-24T03:07:00;100011.85;;;21.27;70.91
50310;BME280;36207;51.850;21.698;2022-08-24T03:09:26;100013.20;;;21.26;71.05
50310;BME280;36207;51.850;21.698;2022-08-24T03:11:52;100018.20;;;21.26;71.15
50310;BME280;36207;51.850;21.698;2022-08-24T03:14:19;100019.54;;;21.25;71.07
50310;BME280;36207;51.850;21.698;2022-08-24T03:16:45;100021.67;;;21.23;71.06
50310;BME280;36207;51.850;21.698;2022-08-24T03:19:12;100024.45;;;21.23;71.16
50310;BME280;36207;51.850;21.698;2022-08-24T03:21:40;100031.27;;;21.22;71.20
50310;BME280;36207;51.850;21.698;2022-08-24T03:24:07;100029.08;;;21.20;71.05
50310;BME280;36207;51.850;21.698;2022-08-24T03:26:34;100027.56;;;21.16;71.16
50310;BME280;36207;51.850;21.698;2022-08-24T03:29:00;100029.42;;;21.14;71.06
50310;BME280;36207;51.850;21.698;2022-08-24T03:31:27;100033.21;;;21.13;71.20
50310;BME280;36207;51.850;21.698;2022-08-24T03:33:53;100034.14;;;21.13;71.42
50310;BME280;36207;51.850;21.698;2022-08-24T03:36:20;100032.78;;;21.13;71.45
50310;BME280;36207;51.850;21.698;2022-08-24T03:38:46;100037.34;;;21.13;71.45
50310;BME280;36207;51.850;21.698;2022-08-24T03:41:12;100040.60;;;21.12;71.55
50310;BME280;36207;51.850;21.698;2022-08-24T03:43:39;100042.58;;;21.14;71.49
50310;BME280;36207;51.850;21.698;2022-08-24T03:46:20;100040.55;;;21.17;71.55
50310;BME280;36207;51.850;21.698;2022-08-24T03:48:48;100039.80;;;21.18;71.61
50310;BME280;36207;51.850;21.698;2022-08-24T03:51:19;100045.19;;;21.18;71.47
50310;BME280;36207;51.850;21.698;2022-08-24T03:53:46;100045.77;;;21.17;71.54
50310;BME280;36207;51.850;21.698;2022-08-24T03:56:12;100049.98;;;21.19;71.75
50310;BME280;36207;51.850;21.698;2022-08-24T03:58:41;100047.15;;;21.22;71.73
50310;BME280;36207;51.850;21.698;2022-08-24T04:01:08;100048.71;;;21.25;71.87
50310;BME280;36207;51.850;21.698;2022-08-24T04:03:37;100060.64;;;21.27;71.78
50310;BME280;36207;51.850;21.698;2022-08-24T04:06:04;100066.16;;;21.30;71.80
50310;BME280;36207;51.850;21.698;2022-08-24T04:08:31;100069.44;;;21.34;71.84
50310;BME280;36207;51.850;21.698;2022-08-24T04:10:58;100073.69;;;21.41;71.95
50310;BME280;36207;51.850;21.698;2022-08-24T04:13:25;100070.53;;;21.48;72.01
50310;BME280;36207;51.850;21.698;2022-08-24T04:15:51;100079.20;;;21.53;71.93
50310;BME280;36207;51.850;21.698;2022-08-24T04:18:18;100088.01;;;21.57;72.00
50310;BME280;36207;51.850;21.698;2022-08-24T04:20:45;100099.35;;;21.63;72.16
50310;BME280;36207;51.850;21.698;2022-08-24T04:23:11;100103.77;;;21.70;72.44
50310;BME280;36207;51.850;21.698;2022-08-24T04:25:41;100107.48;;;21.74;72.24
50310;BME280;36207;51.850;21.698;2022-08-24T04:28:10;100123.77;;;21.80;72.34
50310;BME280;36207;51.850;21.698;2022-08-24T04:30:42;100124.20;;;21.84;72.34
50310;BME280;36207;51.850;21.698;2022-08-24T04:33:10;100124.33;;;21.90;72.34
50310;BME280;36207;51.850;21.698;2022-08-24T04:35:39;100119.98;;;21.98;72.22
50310;BME280;36207;51.850;21.698;2022-08-24T04:38:07;100116.45;;;22.06;72.26
50310;BME280;36207;51.850;21.698;2022-08-24T04:40:34;100113.09;;;22.13;72.33
50310;BME280;36207;51.850;21.698;2022-08-24T04:43:00;100110.85;;;22.18;72.20
50310;BME280;36207;51.850;21.698;2022-08-24T04:45:28;100105.94;;;22.25;72.25
50310;BME280;36207;51.850;21.698;2022-08-24T04:47:54;100104.63;;;22.35;72.35
50310;BME280;36207;51.850;21.698;2022-08-24T04:50:21;100108.01;;;22.44;72.32
50310;BME280;36207;51.850;21.698;2022-08-24T04:52:47;100108.48;;;22.52;72.27
50310;BME280;36207;51.850;21.698;2022-08-24T04:55:14;100101.95;;;22.59;72.23
50310;BME280;36207;51.850;21.698;2022-08-24T04:57:41;100106.27;;;22.66;72.54
50310;BME280;36207;51.850;21.698;2022-08-24T05:00:08;100100.31;;;22.75;72.39
50310;BME280;36207;51.850;21.698;2022-08-24T05:02:37;100090.14;;;22.82;72.36
50310;BME280;36207;51.850;21.698;2022-08-24T05:05:07;100078.81;;;22.88;72.32
50310;BME280;36207;51.850;21.698;2022-08-24T05:07:35;100063.86;;;22.91;72.26
50310;BME280;36207;51.850;21.698;2022-08-24T05:10:03;100059.75;;;22.97;72.40
50310;BME280;36207;51.850;21.698;2022-08-24T05:12:30;100054.12;;;23.07;72.47
50310;BME280;36207;51.850;21.698;2022-08-24T05:14:57;100056.14;;;23.15;72.39
50310;BME280;36207;51.850;21.698;2022-08-24T05:17:25;100055.80;;;23.21;72.37
50310;BME280;36207;51.850;21.698;2022-08-24T05:19:52;100053.05;;;23.24;72.08
50310;BME280;36207;51.850;21.698;2022-08-24T05:22:19;100054.81;;;23.27;72.13
50310;BME280;36207;51.850;21.698;2022-08-24T05:24:46;100055.84;;;23.34;72.29
50310;BME280;36207;51.850;21.698;2022-08-24T05:27:12;100059.66;;;23.45;72.13
50310;BME280;36207;51.850;21.698;2022-08-24T05:29:39;100056.04;;;23.49;72.12
50310;BME280;36207;51.850;21.698;2022-08-24T05:32:05;100058.89;;;23.52;72.08
50310;BME280;36207;51.850;21.698;2022-08-24T05:34:32;100059.63;;;23.56;72.06
50310;BME280;36207;51.850;21.698;2022-08-24T05:36:58;100055.23;;;23.62;72.06
50310;BME280;36207;51.850;21.698;2022-08-24T05:39:25;100048.34;;;23.68;72.09
50310;BME280;36207;51.850;21.698;2022-08-24T05:41:51;100048.95;;;23.75;72.05
50310;BME280;36207;51.850;21.698;2022-08-24T05:44:18;100050.34;;;23.80;71.88
50310;BME280;36207;51.850;21.698;2022-08-24T05:46:45;100055.05;;;23.83;71.84
50310;BME280;36207;51.850;21.698;2022-08-24T05:49:11;100057.45;;;23.85;71.72
50310;BME280;36207;51.850;21.698;2022-08-24T05:51:39;100057.36;;;23.90;71.83
50310;BME280;36207;51.850;21.698;2022-08-24T05:54:08;100056.73;;;23.96;71.72
50310;BME280;36207;51.850;21.698;2022-08-24T05:56:36;100061.92;;;24.00;71.55
50310;BME280;36207;51.850;21.698;2022-08-24T05:59:02;100064.13;;;24.04;71.64
50310;BME280;36207;51.850;21.698;2022-08-24T06:01:29;100058.37;;;24.09;71.43
50310;BME280;36207;51.850;21.698;2022-08-24T06:03:57;100057.57;;;24.14;71.42
50310;BME280;36207;51.850;21.698;2022-08-24T06:06:24;100060.42;;;24.22;71.44
50310;BME280;36207;51.850;21.698;2022-08-24T06:08:55;100061.98;;;24.33;71.42
50310;BME280;36207;51.850;21.698;2022-08-24T06:11:30;100062.91;;;24.42;71.16
50310;BME280;36207;51.850;21.698;2022-08-24T06:14:07;100060.70;;;24.51;71.19
50310;BME280;36207;51.850;21.698;2022-08-24T06:16:35;100068.13;;;24.60;71.21
50310;BME280;36207;51.850;21.698;2022-08-24T06:19:03;100071.25;;;24.68;71.04
50310;BME280;36207;51.850;21.698;2022-08-24T06:21:30;100075.13;;;24.76;70.77
50310;BME280;36207;51.850;21.698;2022-08-24T06:23:57;100077.22;;;24.85;70.85
50310;BME280;36207;51.850;21.698;2022-08-24T06:26:25;100077.60;;;24.94;70.91
50310;BME280;36207;51.850;21.698;2022-08-24T06:29:12;100084.82;;;25.06;70.82
50310;BME280;36207;51.850;21.698;2022-08-24T06:31:44;100087.67;;;25.17;70.72
50310;BME280;36207;51.850;21.698;2022-08-24T06:34:14;100082.42;;;25.26;70.48
50310;BME280;36207;51.850;21.698;2022-08-24T06:36:41;100084.83;;;25.34;70.46
50310;BME280;36207;51.850;21.698;2022-08-24T06:39:08;100085.85;;;25.46;70.47
50310;BME280;36207;51.850;21.698;2022-08-24T06:41:36;100083.58;;;25.60;70.48
50310;BME280;36207;51.850;21.698;2022-08-24T06:44:03;100083.81;;;25.73;70.51
50310;BME280;36207;51.850;21.698;2022-08-24T06:46:30;100086.64;;;25.84;70.22
50310;BME280;36207;51.850;21.698;2022-08-24T06:48:56;100091.72;;;25.94;69.97
50310;BME280;36207;51.850;21.698;2022-08-24T06:51:23;100094.30;;;26.02;69.76
50310;BME280;36207;51.850;21.698;2022-08-24T06:53:50;100095.14;;;26.11;69.74
50310;BME280;36207;51.850;21.698;2022-08-24T06:56:18;100093.77;;;26.22;69.96
50310;BME280;36207;51.850;21.698;2022-08-24T06:58:45;100090.87;;;26.35;69.89
50310;BME280;36207;51.850;21.698;2022-08-24T07:01:18;100092.17;;;26.48;69.84
50310;BME280;36207;51.850;21.698;2022-08-24T07:03:45;100093.27;;;26.59;69.49
50310;BME280;36207;51.850;21.698;2022-08-24T07:06:13;100093.71;;;26.66;69.44
50310;BME280;36207;51.850;21.698;2022-08-24T07:08:41;100094.06;;;26.72;69.27
50310;BME280;36207;51.850;21.698;2022-08-24T07:11:09;100097.46;;;26.80;69.26
50310;BME280;36207;51.850;21.698;2022-08-24T07:13:36;100097.83;;;26.89;68.71
50310;BME280;36207;51.850;21.698;2022-08-24T07:16:03;100099.65;;;26.95;68.69
50310;BME280;36207;51.850;21.698;2022-08-24T07:18:29;100101.20;;;27.07;68.74
50310;BME280;36207;51.850;21.698;2022-08-24T07:20:59;100103.05;;;27.18;68.60
50310;BME280;36207;51.850;21.698;2022-08-24T07:23:27;100099.55;;;27.28;68.70
50310;BME280;36207;51.850;21.698;2022-08-24T07:25:53;100098.20;;;27.40;68.72
50310;BME280;36207;51.850;21.698;2022-08-24T07:28:21;100092.17;;;27.50;68.38
50310;BME280;36207;51.850;21.698;2022-08-24T07:30:47;100092.98;;;27.57;68.23
50310;BME280;36207;51.850;21.698;2022-08-24T07:33:14;100097.86;;;27.66;67.80
50310;BME280;36207;51.850;21.698;2022-08-24T07:35:40;100109.49;;;27.77;67.88
50310;BME280;36207;51.850;21.698;2022-08-24T07:38:07;100120.66;;;27.88;67.46
50310;BME280;36207;51.850;21.698;2022-08-24T07:40:34;100124.14;;;27.96;66.77
50310;BME280;36207;51.850;21.698;2022-08-24T07:43:01;100121.52;;;28.03;65.85
50310;BME280;36207;51.850;21.698;2022-08-24T07:45:28;100121.15;;;28.05;65.39
50310;BME280;36207;51.850;21.698;2022-08-24T07:47:55;100119.50;;;28.11;66.16
50310;BME280;36207;51.850;21.698;2022-08-24T07:50:22;100121.84;;;28.18;65.98
50310;BME280;36207;51.850;21.698;2022-08-24T07:52:49;100123.40;;;28.24;66.01
50310;BME280;36207;51.850;21.698;2022-08-24T07:55:15;100123.75;;;28.31;65.71
50310;BME280;36207;51.850;21.698;2022-08-24T07:57:42;100127.23;;;28.37;65.82
50310;BME280;36207;51.850;21.698;2022-08-24T08:00:12;100124.44;;;28.42;65.16
50310;BME280;36207;51.850;21.698;2022-08-24T08:02:39;100120.77;;;28.47;64.42
50310;BME280;36207;51.850;21.698;2022-08-24T08:05:08;100121.75;;;28.47;63.76
50310;BME280;36207;51.850;21.698;2022-08-24T08:07:34;100123.70;;;28.49;64.52
50310;BME280;36207;51.850;21.698;2022-08-24T08:10:02;100125.00;;;28.55;64.91
50310;BME280;36207;51.850;21.698;2022-08-24T08:12:29;100123.30;;;28.61;64.97
50310;BME280;36207;51.850;21.698;2022-08-24T08:14:55;100116.34;;;28.68;64.45
50310;BME280;36207;51.850;21.698;2022-08-24T08:17:22;100120.84;;;28.76;64.75
50310;BME280;36207;51.850;21.698;2022-08-24T08:19:49;100123.21;;;28.82;64.26
50310;BME280;36207;51.850;21.698;2022-08-24T08:22:15;100122.82;;;28.87;64.11
50310;BME280;36207;51.850;21.698;2022-08-24T08:25:01;100125.46;;;28.93;63.06
50310;BME280;36207;51.850;21.698;2022-08-24T08:27:28;100133.14;;;28.98;63.34
50310;BME280;36207;51.850;21.698;2022-08-24T08:29:55;100137.48;;;29.04;62.90
50310;BME280;36207;51.850;21.698;2022-08-24T08:32:21;100134.89;;;29.07;62.92
50310;BME280;36207;51.850;21.698;2022-08-24T08:34:48;100140.70;;;29.15;62.90
50310;BME280;36207;51.850;21.698;2022-08-24T08:37:15;100138.04;;;29.22;62.33
50310;BME280;36207;51.850;21.698;2022-08-24T08:39:42;100138.65;;;29.27;62.22
50310;BME280;36207;51.850;21.698;2022-08-24T08:53:35;100129.29;;;29.73;61.74
50310;BME280;36207;51.850;21.698;2022-08-24T09:02:16;100123.89;;;29.95;58.98
50310;BME280;36207;51.850;21.698;2022-08-24T09:08:17;100127.56;;;30.13;59.73
50310;BME280;36207;51.850;21.698;2022-08-24T09:13:43;100128.66;;;30.27;59.15
50310;BME280;36207;51.850;21.698;2022-08-24T09:22:12;100126.76;;;30.48;58.28
50310;BME280;36207;51.850;21.698;2022-08-24T09:30:14;100119.81;;;30.51;56.84
50310;BME280;36207;51.850;21.698;2022-08-24T09:41:51;100117.61;;;30.73;56.66
50310;BME280;36207;51.850;21.698;2022-08-24T09:50:11;100120.72;;;30.98;56.91
50310;BME280;36207;51.850;21.698;2022-08-24T09:55:41;100119.59;;;31.13;55.96
50310;BME280;36207;51.850;21.698;2022-08-24T10:00:49;100126.03;;;31.31;55.75
50310;BME280;36207;51.850;21.698;2022-08-24T10:06:24;100120.36;;;31.38;55.03
50310;BME280;36207;51.850;21.698;2022-08-24T10:09:03;100119.19;;;31.43;53.42
50310;BME280;36207;51.850;21.698;2022-08-24T10:12:01;100121.30;;;31.44;52.63
50310;BME280;36207;51.850;21.698;2022-08-24T10:33:22;100130.73;;;31.72;52.71
50310;BME280;36207;51.850;21.698;2022-08-24T10:36:29;100134.34;;;31.75;52.77
50310;BME280;36207;51.850;21.698;2022-08-24T10:47:16;100132.79;;;31.77;50.40
50310;BME280;36207;51.850;21.698;2022-08-24T10:53:25;100123.46;;;31.81;50.72
50310;BME280;36207;51.850;21.698;2022-08-24T10:55:45;100119.88;;;31.85;51.59
50310;BME280;36207;51.850;21.698;2022-08-24T10:58:36;100113.95;;;31.92;52.19
50310;BME280;36207;51.850;21.698;2022-08-24T11:04:12;100107.78;;;32.01;50.49
50310;BME280;36207;51.850;21.698;2022-08-24T11:06:43;100106.17;;;32.01;50.60
50310;BME280;36207;51.850;21.698;2022-08-24T11:09:11;100107.70;;;32.00;50.37
50310;BME280;36207;51.850;21.698;2022-08-24T11:11:44;100107.52;;;31.95;49.72
50310;BME280;36207;51.850;21.698;2022-08-24T11:16:43;100110.00;;;31.86;50.32
50310;BME280;36207;51.850;21.698;2022-08-24T11:21:53;100107.59;;;31.82;50.32
50310;BME280;36207;51.850;21.698;2022-08-24T11:24:46;100112.63;;;31.77;49.63
50310;BME280;36207;51.850;21.698;2022-08-24T11:35:03;100109.00;;;31.73;50.25
50310;BME280;36207;51.850;21.698;2022-08-24T11:37:33;100108.02;;;31.72;49.54
50310;BME280;36207;51.850;21.698;2022-08-24T11:40:01;100108.56;;;31.68;49.45
50310;BME280;36207;51.850;21.698;2022-08-24T11:42:52;100110.13;;;31.66;49.89
50310;BME280;36207;51.850;21.698;2022-08-24T11:45:46;100112.54;;;31.64;49.36
50310;BME280;36207;51.850;21.698;2022-08-24T11:48:34;100108.14;;;31.58;49.41
50310;BME280;36207;51.850;21.698;2022-08-24T11:51:42;100107.97;;;31.58;50.08
50310;BME280;36207;51.850;21.698;2022-08-24T11:54:32;100108.20;;;31.59;49.38
50310;BME280;36207;51.850;21.698;2022-08-24T11:57:29;100108.70;;;31.61;49.87
50310;BME280;36207;51.850;21.698;2022-08-24T12:00:14;100109.38;;;31.66;50.24
50310;BME280;36207;51.850;21.698;2022-08-24T12:06:00;100101.66;;;31.69;50.42
50310;BME280;36207;51.850;21.698;2022-08-24T12:08:42;100099.42;;;31.72;50.49
50310;BME280;36207;51.850;21.698;2022-08-24T12:13:55;100097.36;;;31.78;50.05
50310;BME280;36207;51.850;21.698;2022-08-24T12:19:20;100093.31;;;31.80;50.14
50310;BME280;36207;51.850;21.698;2022-08-24T12:21:53;100092.52;;;31.85;50.35
50310;BME280;36207;51.850;21.698;2022-08-24T12:27:10;100091.98;;;31.87;49.79
50310;BME280;36207;51.850;21.698;2022-08-24T12:29:58;100088.68;;;31.84;49.91
50310;BME280;36207;51.850;21.698;2022-08-24T12:35:22;100086.81;;;31.78;50.01
50310;BME280;36207;51.850;21.698;2022-08-24T12:38:18;100088.55;;;31.72;49.13
50310;BME280;36207;51.850;21.698;2022-08-24T12:41:37;100084.91;;;31.65;48.41
50310;BME280;36207;51.850;21.698;2022-08-24T12:43:41;100084.27;;;31.67;49.25
50310;BME280;36207;51.850;21.698;2022-08-24T12:46:10;100087.27;;;31.72;48.89
50310;BME280;36207;51.850;21.698;2022-08-24T12:48:52;100086.52;;;31.75;48.70
50310;BME280;36207;51.850;21.698;2022-08-24T12:59:46;100081.69;;;31.62;48.84
50310;BME280;36207;51.850;21.698;2022-08-24T13:18:00;100090.54;;;31.10;49.03
50310;BME280;36207;51.850;21.698;2022-08-24T13:23:24;100086.46;;;30.90;48.83
50310;BME280;36207;51.850;21.698;2022-08-24T13:31:26;100088.77;;;30.59;49.68
50310;BME280;36207;51.850;21.698;2022-08-24T13:33:59;100091.38;;;30.48;50.02
50310;BME280;36207;51.850;21.698;2022-08-24T13:37:32;100091.91;;;30.39;50.52
50310;BME280;36207;51.850;21.698;2022-08-24T13:42:16;100082.98;;;30.21;51.39
50310;BME280;36207;51.850;21.698;2022-08-24T13:48:01;100071.23;;;30.04;51.98
50310;BME280;36207;51.850;21.698;2022-08-24T14:01:36;100098.02;;;29.98;52.27
50310;BME280;36207;51.850;21.698;2022-08-24T14:04:15;100099.95;;;29.95;51.98
50310;BME280;36207;51.850;21.698;2022-08-24T14:10:06;100086.45;;;29.84;52.38
50310;BME280;36207;51.850;21.698;2022-08-24T14:12:43;100087.00;;;29.75;52.46
50310;BME280;36207;51.850;21.698;2022-08-24T14:21:32;100089.80;;;29.30;53.53
50310;BME280;36207;51.850;21.698;2022-08-24T14:24:03;100099.73;;;29.08;54.05
50310;BME280;36207;51.850;21.698;2022-08-24T14:37:01;100091.98;;;28.12;55.94
50310;BME280;36207;51.850;21.698;2022-08-24T14:45:21;100076.66;;;27.91;56.98
50310;BME280;36207;51.850;21.698;2022-08-24T14:51:03;100078.25;;;27.81;57.18
50310;BME280;36207;51.850;21.698;2022-08-24T14:54:00;100081.73;;;27.78;57.11
50310;BME280;36207;51.850;21.698;2022-08-24T14:59:28;100085.99;;;27.68;58.09
50310;BME280;36207;51.850;21.698;2022-08-24T15:02:28;100092.00;;;27.60;58.06
50310;BME280;36207;51.850;21.698;2022-08-24T15:07:33;100097.90;;;27.52;58.99
50310;BME280;36207;51.850;21.698;2022-08-24T15:10:03;100092.80;;;27.47;59.05
50310;BME280;36207;51.850;21.698;2022-08-24T15:12:54;100092.42;;;27.42;59.28
50310;BME280;36207;51.850;21.698;2022-08-24T15:16:26;100086.59;;;27.37;59.21
50310;BME280;36207;51.850;21.698;2022-08-24T15:21:54;100079.48;;;27.29;60.10
50310;BME280;36207;51.850;21.698;2022-08-24T15:29:47;100087.13;;;27.26;59.99
50310;BME280;36207;51.850;21.698;2022-08-24T15:32:15;100088.27;;;27.22;60.41
50310;BME280;36207;51.850;21.698;2022-08-24T15:34:53;100078.15;;;27.17;60.43
50310;BME280;36207;51.850;21.698;2022-08-24T15:37:33;100072.41;;;27.14;60.70
50310;BME280;36207;51.850;21.698;2022-08-24T15:40:02;100078.04;;;27.10;60.99
50310;BME280;36207;51.850;21.698;2022-08-24T15:42:32;100087.59;;;27.08;61.17
50310;BME280;36207;51.850;21.698;2022-08-24T15:45:03;100083.71;;;27.06;61.22
50310;BME280;36207;51.850;21.698;2022-08-24T15:47:33;100077.64;;;27.05;61.16
50310;BME280;36207;51.850;21.698;2022-08-24T15:57:49;100090.54;;;26.88;61.85
50310;BME280;36207;51.850;21.698;2022-08-24T16:00:20;100091.94;;;26.86;61.96
50310;BME280;36207;51.850;21.698;2022-08-24T16:05:48;100098.67;;;26.78;61.61
50310;BME280;36207;51.850;21.698;2022-08-24T16:08:15;100106.94;;;26.72;61.80
50310;BME280;36207;51.850;21.698;2022-08-24T16:10:49;100110.52;;;26.60;61.92
50310;BME280;36207;51.850;21.698;2022-08-24T16:16:01;100130.35;;;26.44;62.20
50310;BME280;36207;51.850;21.698;2022-08-24T16:18:56;100138.33;;;26.37;62.02
50310;BME280;36207;51.850;21.698;2022-08-24T16:21:54;100147.39;;;26.30;62.28
50310;BME280;36207;51.850;21.698;2022-08-24T16:32:11;100138.44;;;26.09;63.26
50310;BME280;36207;51.850;21.698;2022-08-24T16:34:39;100134.04;;;26.06;63.07
50310;BME280;36207;51.850;21.698;2022-08-24T16:37:06;100131.20;;;26.01;63.35
50310;BME280;36207;51.850;21.698;2022-08-24T16:39:33;100130.81;;;25.98;63.56
50310;BME280;36207;51.850;21.698;2022-08-24T16:42:03;100130.16;;;25.98;63.63
50310;BME280;36207;51.850;21.698;2022-08-24T16:44:35;100135.64;;;25.97;63.72
50310;BME280;36207;51.850;21.698;2022-08-24T17:11:16;100121.55;;;25.42;64.70
50310;BME280;36207;51.850;21.698;2022-08-24T17:13:42;100122.39;;;25.35;64.61
50310;BME280;36207;51.850;21.698;2022-08-24T17:16:10;100127.97;;;25.33;64.79
50310;BME280;36207;51.850;21.698;2022-08-24T17:18:37;100133.86;;;25.33;64.95
50310;BME280;36207;51.850;21.698;2022-08-24T17:21:05;100140.54;;;25.34;64.84